sensor_id;sensor_type;location;lat;lon;timestamp;temperature;humidity
53599;DHT22;39485;45.702;11.364;2022-10-28T00:02:18;15.00;99.90
53599;DHT22;39485;45.702;11.364;2022-10-28T00:04:43;14.90;99.90
53599;DHT22;39485;45.702;11.364;2022-10-28T00:07:09;14.90;99.90
53599;DHT22;39485;45.702;11.364;2022-10-28T00:09:35;14.90;99.90
53599;DHT22;39485;45.702;11.364;2022-10-28T00:12:00;14.90;99.90
53599;DHT22;39485;45.702;11.364;2022-10-28T00:14:26;14.90;99.90
53599;DHT22;39485;45.702;11.364;2022-10-28T00:16:52;14.80;99.90
53599;DHT22;39485;45.702;11.364;2022-10-28T00:19:17;14.80;99.90
53599;DHT22;39485;45.702;11.364;2022-10-28T00:21:43;14.80;99.90
53599;DHT22;39485;45.702;11.364;2022-10-28T00:24:11;14.80;99.90
53599;DHT22;39485;45.702;11.364;2022-10-28T00:26:38;14.70;99.90
53599;DHT22;39485;45.702;11.364;2022-10-28T00:29:09;14.80;99.90
53599;DHT22;39485;45.702;11.364;2022-10-28T00:31:36;14.70;99.90
53599;DHT22;39485;45.702;11.364;2022-10-28T00:34:04;14.70;99.90
53599;DHT22;39485;45.702;11.364;2022-10-28T00:36:32;14.70;99.90
53599;DHT22;39485;45.702;11.364;2022-10-28T00:38:59;14.60;99.90
53599;DHT22;39485;45.702;11.364;2022-10-28T00:41:31;14.60;99.90
53599;DHT22;39485;45.702;11.364;2022-10-28T00:43:59;14.70;99.90
53599;DHT22;39485;45.702;11.364;2022-10-28T00:46:41;14.60;99.90
53599;DHT22;39485;45.702;11.364;2022-10-28T00:49:28;14.60;99.90
53599;DHT22;39485;45.702;11.364;2022-10-28T00:51:58;14.60;99.90
53599;DHT22;39485;45.702;11.364;2022-10-28T00:54:24;14.60;99.90
53599;DHT22;39485;45.702;11.364;2022-10-28T00:56:52;14.60;99.90
53599;DHT22;39485;45.702;11.364;2022-10-28T00:59:31;14.60;99.90
53599;DHT22;39485;45.702;11.364;2022-10-28T01:01:58;14.60;99.90
53599;DHT22;39485;45.702;11.364;2022-10-28T01:04:24;14.60;99.90
53599;DHT22;39485;45.702;11.364;2022-10-28T01:06:50;14.50;99.90
53599;DHT22;39485;45.702;11.364;2022-10-28T01:09:16;14.50;99.90
53599;DHT22;39485;45.702;11.364;2022-10-28T01:15:11;14.40;99.90
53599;DHT22;39485;45.702;11.364;2022-10-28T01:18:15;14.40;99.90
53599;DHT22;39485;45.702;11.364;2022-10-28T01:21:15;14.40;99.90
53599;DHT22;39485;45.702;11.364;2022-10-28T01:31:34;14.30;99.90
53599;DHT22;39485;45.702;11.364;2022-10-28T01:34:54;14.30;99.90
53599;DHT22;39485;45.702;11.364;2022-10-28T01:36:58;14.20;99.90
53599;DHT22;39485;45.702;11.364;2022-10-28T01:57:40;14.10;99.90
53599;DHT22;39485;45.702;11.364;2022-10-28T02:00:07;14.10;99.90
53599;DHT22;39485;45.702;11.364;2022-10-28T02:02:35;14.10;99.90
53599;DHT22;39485;45.702;11.364;2022-10-28T02:07:49;14.00;99.90
53599;DHT22;39485;45.702;11.364;2022-10-28T02:10:16;14.10;99.90
53599;DHT22;39485;45.702;11.364;2022-10-28T02:12:47;14.00;99.90
53599;DHT22;39485;45.702;11.364;2022-10-28T02:22:54;14.10;99.90
53599;DHT22;39485;45.702;11.364;2022-10-28T02:25:32;14.10;99.90
53599;DHT22;39485;45.702;11.364;2022-10-28T02:28:06;14.10;99.90
53599;DHT22;39485;45.702;11.364;2022-10-28T02:33:06;14.10;99.90
53599;DHT22;39485;45.702;11.364;2022-10-28T02:36:23;14.10;99.90
53599;DHT22;39485;45.702;11.364;2022-10-28T02:38:42;14.10;99.90
53599;DHT22;39485;45.702;11.364;2022-10-28T02:41:16;14.10;99.90
53599;DHT22;39485;45.702;11.364;2022-10-28T02:43:46;14.00;99.90
53599;DHT22;39485;45.702;11.364;2022-10-28T02:46:13;14.00;99.90
53599;DHT22;39485;45.702;11.364;2022-10-28T02:48:51;14.00;99.90
53599;DHT22;39485;45.702;11.364;2022-10-28T02:51:21;14.00;99.90
53599;DHT22;39485;45.702;11.364;2022-10-28T02:54:08;13.90;99.90
53599;DHT22;39485;45.702;11.364;2022-10-28T02:56:38;13.90;99.90
53599;DHT22;39485;45.702;11.364;2022-10-28T02:59:09;13.90;99.90
53599;DHT22;39485;45.702;11.364;2022-10-28T03:01:36;13.90;99.90
53599;DHT22;39485;45.702;11.364;2022-10-28T03:04:02;13.90;99.90
53599;DHT22;39485;45.702;11.364;2022-10-28T03:06:28;13.90;99.90
53599;DHT22;39485;45.702;11.364;2022-10-28T03:08:54;13.90;99.90
53599;DHT22;39485;45.702;11.364;2022-10-28T03:11:20;13.90;99.90
53599;DHT22;39485;45.702;11.364;2022-10-28T03:13:45;13.90;99.90
53599;DHT22;39485;45.702;11.364;2022-10-28T03:16:11;13.90;99.90
53599;DHT22;39485;45.702;11.364;2022-10-28T03:18:36;13.90;99.90
53599;DHT22;39485;45.702;11.364;2022-10-28T03:21:02;13.90;99.90
53599;DHT22;39485;45.702;11.364;2022-10-28T03:23:28;13.90;99.90
53599;DHT22;39485;45.702;11.364;2022-10-28T03:25:53;13.80;99.90
53599;DHT22;39485;45.702;11.364;2022-10-28T03:28:19;13.90;99.90
53599;DHT22;39485;45.702;11.364;2022-10-28T03:30:45;13.90;99.90
53599;DHT22;39485;45.702;11.364;2022-10-28T03:33:10;13.90;99.90
53599;DHT22;39485;45.702;11.364;2022-10-28T03:35:36;13.90;99.90
53599;DHT22;39485;45.702;11.364;2022-10-28T03:38:01;13.90;99.90
53599;DHT22;39485;45.702;11.364;2022-10-28T03:40:27;13.90;99.90
53599;DHT22;39485;45.702;11.364;2022-10-28T03:42:53;13.90;99.90
53599;DHT22;39485;45.702;11.364;2022-10-28T03:45:19;13.90;99.90
53599;DHT22;39485;45.702;11.364;2022-10-28T03:47:44;13.90;99.90
53599;DHT22;39485;45.702;11.364;2022-10-28T03:50:10;13.90;99.90
53599;DHT22;39485;45.702;11.364;2022-10-28T03:52:36;13.90;99.90
53599;DHT22;39485;45.702;11.364;2022-10-28T03:55:02;13.90;99.90
53599;DHT22;39485;45.702;11.364;2022-10-28T03:57:32;13.90;99.90
53599;DHT22;39485;45.702;11.364;2022-10-28T03:59:58;13.90;99.90
53599;DHT22;39485;45.702;11.364;2022-10-28T04:02:23;13.80;99.90
53599;DHT22;39485;45.702;11.364;2022-10-28T04:04:49;13.80;99.90
53599;DHT22;39485;45.702;11.364;2022-10-28T04:07:14;13.80;99.90
53599;DHT22;39485;45.702;11.364;2022-10-28T04:09:40;13.80;99.90
53599;DHT22;39485;45.702;11.364;2022-10-28T04:12:06;13.80;99.90
53599;DHT22;39485;45.702;11.364;2022-10-28T04:14:32;13.80;99.90
53599;DHT22;39485;45.702;11.364;2022-10-28T04:16:57;13.70;99.90
53599;DHT22;39485;45.702;11.364;2022-10-28T04:19:23;13.70;99.90
53599;DHT22;39485;45.702;11.364;2022-10-28T04:21:49;13.70;99.90
53599;DHT22;39485;45.702;11.364;2022-10-28T04:24:14;13.70;99.90
53599;DHT22;39485;45.702;11.364;2022-10-28T04:26:40;13.70;99.90
53599;DHT22;39485;45.702;11.364;2022-10-28T04:29:06;13.70;99.90
53599;DHT22;39485;45.702;11.364;2022-10-28T04:31:31;13.60;99.90
53599;DHT22;39485;45.702;11.364;2022-10-28T04:33:57;13.60;99.90
53599;DHT22;39485;45.702;11.364;2022-10-28T04:36:23;13.60;99.90
53599;DHT22;39485;45.702;11.364;2022-10-28T04:38:48;13.60;99.90
53599;DHT22;39485;45.702;11.364;2022-10-28T04:41:16;13.60;99.90
53599;DHT22;39485;45.702;11.364;2022-10-28T04:43:42;13.60;99.90
53599;DHT22;39485;45.702;11.364;2022-10-28T04:46:08;13.60;99.90
53599;DHT22;39485;45.702;11.364;2022-10-28T04:48:34;13.60;99.90
53599;DHT22;39485;45.702;11.364;2022-10-28T04:51:00;13.60;99.90
53599;DHT22;39485;45.702;11.364;2022-10-28T04:53:25;13.60;99.90
53599;DHT22;39485;45.702;11.364;2022-10-28T04:55:56;13.60;99.90
53599;DHT22;39485;45.702;11.364;2022-10-28T04:58:22;13.60;99.90
53599;DHT22;39485;45.702;11.364;2022-10-28T05:00:48;13.50;99.90
53599;DHT22;39485;45.702;11.364;2022-10-28T05:03:13;13.50;99.90
53599;DHT22;39485;45.702;11.364;2022-10-28T05:05:39;13.50;99.90
53599;DHT22;39485;45.702;11.364;2022-10-28T05:08:05;13.50;99.90
53599;DHT22;39485;45.702;11.364;2022-10-28T05:10:31;13.50;99.90
53599;DHT22;39485;45.702;11.364;2022-10-28T05:12:57;13.50;99.90
53599;DHT22;39485;45.702;11.364;2022-10-28T05:15:23;13.50;99.90
53599;DHT22;39485;45.702;11.364;2022-10-28T05:17:51;13.60;99.90
53599;DHT22;39485;45.702;11.364;2022-10-28T05:20:18;13.60;99.90
53599;DHT22;39485;45.702;11.364;2022-10-28T05:22:48;13.60;99.90
53599;DHT22;39485;45.702;11.364;2022-10-28T05:25:15;13.60;99.90
53599;DHT22;39485;45.702;11.364;2022-10-28T05:27:41;13.60;99.90
53599;DHT22;39485;45.702;11.364;2022-10-28T05:30:07;13.60;99.90
53599;DHT22;39485;45.702;11.364;2022-10-28T05:32:33;13.50;99.90
53599;DHT22;39485;45.702;11.364;2022-10-28T05:34:59;13.60;99.90
53599;DHT22;39485;45.702;11.364;2022-10-28T05:37:25;13.50;99.90
53599;DHT22;39485;45.702;11.364;2022-10-28T05:39:51;13.50;99.90
53599;DHT22;39485;45.702;11.364;2022-10-28T05:42:17;13.50;99.90
53599;DHT22;39485;45.702;11.364;2022-10-28T05:44:42;13.50;99.90
53599;DHT22;39485;45.702;11.364;2022-10-28T05:47:08;13.50;99.90
53599;DHT22;39485;45.702;11.364;2022-10-28T05:49:34;13.40;99.90
53599;DHT22;39485;45.702;11.364;2022-10-28T05:52:00;13.40;99.90
53599;DHT22;39485;45.702;11.364;2022-10-28T05:54:25;13.40;99.90
53599;DHT22;39485;45.702;11.364;2022-10-28T05:56:51;13.40;99.90
53599;DHT22;39485;45.702;11.364;2022-10-28T05:59:17;13.50;99.90
53599;DHT22;39485;45.702;11.364;2022-10-28T06:01:42;13.50;99.90
53599;DHT22;39485;45.702;11.364;2022-10-28T06:04:08;13.50;99.90
53599;DHT22;39485;45.702;11.364;2022-10-28T06:06:34;13.50;99.90
53599;DHT22;39485;45.702;11.364;2022-10-28T06:08:59;13.50;99.90
53599;DHT22;39485;45.702;11.364;2022-10-28T06:11:25;13.50;99.90
53599;DHT22;39485;45.702;11.364;2022-10-28T06:13:51;13.50;99.90
53599;DHT22;39485;45.702;11.364;2022-10-28T06:16:16;13.50;99.90
53599;DHT22;39485;45.702;11.364;2022-10-28T06:18:42;13.50;99.90
53599;DHT22;39485;45.702;11.364;2022-10-28T06:21:07;13.50;99.90
53599;DHT22;39485;45.702;11.364;2022-10-28T06:23:33;13.60;99.90
53599;DHT22;39485;45.702;11.364;2022-10-28T06:26:00;13.60;99.90
53599;DHT22;39485;45.702;11.364;2022-10-28T06:28:26;13.60;99.90
53599;DHT22;39485;45.702;11.364;2022-10-28T06:30:52;13.60;99.90
53599;DHT22;39485;45.702;11.364;2022-10-28T06:33:18;13.70;99.90
53599;DHT22;39485;45.702;11.364;2022-10-28T06:35:44;13.70;99.90
53599;DHT22;39485;45.702;11.364;2022-10-28T06:38:09;13.70;99.90
53599;DHT22;39485;45.702;11.364;2022-10-28T06:40:35;13.80;99.90
53599;DHT22;39485;45.702;11.364;2022-10-28T06:43:03;13.80;99.90
53599;DHT22;39485;45.702;11.364;2022-10-28T06:45:30;13.90;99.90
53599;DHT22;39485;45.702;11.364;2022-10-28T06:48:04;13.90;99.90
53599;DHT22;39485;45.702;11.364;2022-10-28T06:50:31;14.00;99.90
53599;DHT22;39485;45.702;11.364;2022-10-28T06:52:58;14.10;99.90
53599;DHT22;39485;45.702;11.364;2022-10-28T06:55:24;14.10;99.90
53599;DHT22;39485;45.702;11.364;2022-10-28T06:57:50;14.20;99.90
53599;DHT22;39485;45.702;11.364;2022-10-28T07:00:16;14.30;99.90
53599;DHT22;39485;45.702;11.364;2022-10-28T07:02:42;14.30;99.90
53599;DHT22;39485;45.702;11.364;2022-10-28T07:05:08;14.40;99.90
53599;DHT22;39485;45.702;11.364;2022-10-28T07:07:34;14.50;99.90
53599;DHT22;39485;45.702;11.364;2022-10-28T07:10:03;14.50;99.90
53599;DHT22;39485;45.702;11.364;2022-10-28T07:12:28;14.50;99.90
53599;DHT22;39485;45.702;11.364;2022-10-28T07:14:54;14.60;99.90
53599;DHT22;39485;45.702;11.364;2022-10-28T07:17:20;14.70;99.90
53599;DHT22;39485;45.702;11.364;2022-10-28T07:19:45;14.80;99.90
53599;DHT22;39485;45.702;11.364;2022-10-28T07:22:11;14.90;99.90
53599;DHT22;39485;45.702;11.364;2022-10-28T07:24:37;15.00;99.90
53599;DHT22;39485;45.702;11.364;2022-10-28T07:27:02;15.20;99.90
53599;DHT22;39485;45.702;11.364;2022-10-28T07:29:28;15.20;99.90
53599;DHT22;39485;45.702;11.364;2022-10-28T07:31:54;15.30;99.90
53599;DHT22;39485;45.702;11.364;2022-10-28T07:34:20;15.40;99.90
53599;DHT22;39485;45.702;11.364;2022-10-28T07:36:55;15.50;99.90
53599;DHT22;39485;45.702;11.364;2022-10-28T07:39:21;15.60;99.90
53599;DHT22;39485;45.702;11.364;2022-10-28T07:41:47;15.70;99.90
53599;DHT22;39485;45.702;11.364;2022-10-28T07:44:13;15.80;99.90
53599;DHT22;39485;45.702;11.364;2022-10-28T07:46:39;15.80;99.90
53599;DHT22;39485;45.702;11.364;2022-10-28T07:49:05;15.90;99.90
53599;DHT22;39485;45.702;11.364;2022-10-28T07:51:31;16.00;99.90
53599;DHT22;39485;45.702;11.364;2022-10-28T07:53:57;16.10;99.90
53599;DHT22;39485;45.702;11.364;2022-10-28T07:56:23;16.10;99.90
53599;DHT22;39485;45.702;11.364;2022-10-28T07:58:50;16.20;99.90
53599;DHT22;39485;45.702;11.364;2022-10-28T08:01:19;16.30;99.90
53599;DHT22;39485;45.702;11.364;2022-10-28T08:03:45;16.40;99.90
53599;DHT22;39485;45.702;11.364;2022-10-28T08:06:14;16.50;99.90
53599;DHT22;39485;45.702;11.364;2022-10-28T08:08:43;16.50;99.90
53599;DHT22;39485;45.702;11.364;2022-10-28T08:11:09;16.60;99.90
53599;DHT22;39485;45.702;11.364;2022-10-28T08:13:35;16.70;99.90
53599;DHT22;39485;45.702;11.364;2022-10-28T08:16:01;16.70;99.90
53599;DHT22;39485;45.702;11.364;2022-10-28T08:18:26;16.80;99.90
53599;DHT22;39485;45.702;11.364;2022-10-28T08:20:52;16.80;99.90
53599;DHT22;39485;45.702;11.364;2022-10-28T08:23:18;16.90;99.90
53599;DHT22;39485;45.702;11.364;2022-10-28T08:25:50;16.90;99.90
53599;DHT22;39485;45.702;11.364;2022-10-28T08:28:17;17.00;99.90
53599;DHT22;39485;45.702;11.364;2022-10-28T08:30:44;17.10;99.90
53599;DHT22;39485;45.702;11.364;2022-10-28T08:33:10;17.20;99.90
53599;DHT22;39485;45.702;11.364;2022-10-28T08:35:36;17.20;99.90
53599;DHT22;39485;45.702;11.364;2022-10-28T08:38:02;17.30;99.90
53599;DHT22;39485;45.702;11.364;2022-10-28T08:46:15;17.50;99.90
53599;DHT22;39485;45.702;11.364;2022-10-28T08:48:44;17.50;99.90
53599;DHT22;39485;45.702;11.364;2022-10-28T08:51:35;17.60;99.90
53599;DHT22;39485;45.702;11.364;2022-10-28T08:54:05;17.60;99.90
53599;DHT22;39485;45.702;11.364;2022-10-28T08:56:34;17.70;99.90
53599;DHT22;39485;45.702;11.364;2022-10-28T08:59:04;17.70;99.90
53599;DHT22;39485;45.702;11.364;2022-10-28T09:01:52;17.80;99.90
53599;DHT22;39485;45.702;11.364;2022-10-28T09:06:54;17.90;99.90
53599;DHT22;39485;45.702;11.364;2022-10-28T09:09:21;17.90;99.90
53599;DHT22;39485;45.702;11.364;2022-10-28T09:17:17;18.20;99.90
53599;DHT22;39485;45.702;11.364;2022-10-28T09:30:58;18.60;99.90
53599;DHT22;39485;45.702;11.364;2022-10-28T09:36:01;18.70;99.90
53599;DHT22;39485;45.702;11.364;2022-10-28T09:38:31;18.70;99.90
53599;DHT22;39485;45.702;11.364;2022-10-28T09:41:05;18.70;99.90
53599;DHT22;39485;45.702;11.364;2022-10-28T09:43:39;18.70;99.90
53599;DHT22;39485;45.702;11.364;2022-10-28T09:46:14;18.80;99.90
53599;DHT22;39485;45.702;11.364;2022-10-28T09:48:45;18.80;99.90
53599;DHT22;39485;45.702;11.364;2022-10-28T09:53:52;18.90;99.90
53599;DHT22;39485;45.702;11.364;2022-10-28T09:56:19;19.00;99.90
53599;DHT22;39485;45.702;11.364;2022-10-28T09:58:46;19.10;99.90
53599;DHT22;39485;45.702;11.364;2022-10-28T10:01:13;19.10;99.90
53599;DHT22;39485;45.702;11.364;2022-10-28T11:14:35;20.40;99.90
53599;DHT22;39485;45.702;11.364;2022-10-28T11:17:02;20.50;99.90
53599;DHT22;39485;45.702;11.364;2022-10-28T11:22:03;20.60;99.90
53599;DHT22;39485;45.702;11.364;2022-10-28T11:24:40;20.60;99.90
53599;DHT22;39485;45.702;11.364;2022-10-28T11:29:49;20.70;99.90
53599;DHT22;39485;45.702;11.364;2022-10-28T11:32:24;20.80;99.90
53599;DHT22;39485;45.702;11.364;2022-10-28T11:50:54;21.00;99.90
53599;DHT22;39485;45.702;11.364;2022-10-28T12:10:33;21.30;99.90
53599;DHT22;39485;45.702;11.364;2022-10-28T12:18:28;21.40;99.90
53599;DHT22;39485;45.702;11.364;2022-10-28T12:21:11;21.40;99.90
53599;DHT22;39485;45.702;11.364;2022-10-28T12:23:40;21.50;99.90
53599;DHT22;39485;45.702;11.364;2022-10-28T12:26:10;21.50;99.90
53599;DHT22;39485;45.702;11.364;2022-10-28T12:28:43;21.60;99.90
53599;DHT22;39485;45.702;11.364;2022-10-28T12:31:29;21.70;99.90
53599;DHT22;39485;45.702;11.364;2022-10-28T12:34:00;21.70;99.90
53599;DHT22;39485;45.702;11.364;2022-10-28T12:36:33;21.70;99.90
53599;DHT22;39485;45.702;11.364;2022-10-28T12:41:50;21.70;99.90
53599;DHT22;39485;45.702;11.364;2022-10-28T12:44:23;21.70;99.90
53599;DHT22;39485;45.702;11.364;2022-10-28T12:47:04;21.70;99.90
53599;DHT22;39485;45.702;11.364;2022-10-28T12:57:28;21.80;99.90
53599;DHT22;39485;45.702;11.364;2022-10-28T13:02:38;21.90;99.90
53599;DHT22;39485;45.702;11.364;2022-10-28T13:05:06;22.00;99.90
53599;DHT22;39485;45.702;11.364;2022-10-28T13:10:41;22.00;99.90
53599;DHT22;39485;45.702;11.364;2022-10-28T13:21:02;22.10;99.90
53599;DHT22;39485;45.702;11.364;2022-10-28T13:26:34;22.00;99.90
53599;DHT22;39485;45.702;11.364;2022-10-28T13:29:05;22.10;99.90
53599;DHT22;39485;45.702;11.364;2022-10-28T13:31:44;22.00;99.90
53599;DHT22;39485;45.702;11.364;2022-10-28T13:34:13;22.10;99.90
53599;DHT22;39485;45.702;11.364;2022-10-28T13:37:14;22.00;99.90
53599;DHT22;39485;45.702;11.364;2022-10-28T13:39:44;22.10;99.90
53599;DHT22;39485;45.702;11.364;2022-10-28T13:44:58;22.00;99.90
53599;DHT22;39485;45.702;11.364;2022-10-28T13:47:30;22.00;99.90
53599;DHT22;39485;45.702;11.364;2022-10-28T13:50:20;22.00;99.90
53599;DHT22;39485;45.702;11.364;2022-10-28T13:55:57;22.00;99.90
53599;DHT22;39485;45.702;11.364;2022-10-28T13:58:24;22.00;99.90
53599;DHT22;39485;45.702;11.364;2022-10-28T14:00:51;22.00;99.90
53599;DHT22;39485;45.702;11.364;2022-10-28T14:03:25;22.00;99.90
53599;DHT22;39485;45.702;11.364;2022-10-28T14:05:52;22.00;99.90
53599;DHT22;39485;45.702;11.364;2022-10-28T14:11:02;22.00;99.90
53599;DHT22;39485;45.702;11.364;2022-10-28T14:13:30;22.00;99.90
53599;DHT22;39485;45.702;11.364;2022-10-28T14:19:05;22.00;99.90
53599;DHT22;39485;45.702;11.364;2022-10-28T14:24:29;22.00;99.90
53599;DHT22;39485;45.702;11.364;2022-10-28T14:30:16;22.00;99.90
53599;DHT22;39485;45.702;11.364;2022-10-28T14:43:31;21.90;99.90
53599;DHT22;39485;45.702;11.364;2022-10-28T14:48:52;21.80;99.90
53599;DHT22;39485;45.702;11.364;2022-10-28T14:51:39;21.70;99.90
53599;DHT22;39485;45.702;11.364;2022-10-28T14:54:14;21.70;99.90
53599;DHT22;39485;45.702;11.364;2022-10-28T14:56:41;21.60;99.90
53599;DHT22;39485;45.702;11.364;2022-10-28T14:59:33;21.60;99.90
53599;DHT22;39485;45.702;11.364;2022-10-28T15:02:13;21.60;99.90
53599;DHT22;39485;45.702;11.364;2022-10-28T15:04:42;21.60;99.90
53599;DHT22;39485;45.702;11.364;2022-10-28T15:07:15;21.50;99.90
53599;DHT22;39485;45.702;11.364;2022-10-28T15:09:42;21.50;99.90
53599;DHT22;39485;45.702;11.364;2022-10-28T15:12:15;21.40;99.90
53599;DHT22;39485;45.702;11.364;2022-10-28T15:14:50;21.30;99.90
53599;DHT22;39485;45.702;11.364;2022-10-28T15:17:25;21.30;99.90
53599;DHT22;39485;45.702;11.364;2022-10-28T15:19:53;21.20;99.90
53599;DHT22;39485;45.702;11.364;2022-10-28T15:22:29;21.10;99.90
53599;DHT22;39485;45.702;11.364;2022-10-28T15:25:05;21.10;99.90
53599;DHT22;39485;45.702;11.364;2022-10-28T15:27:42;20.90;99.90
53599;DHT22;39485;45.702;11.364;2022-10-28T15:32:50;20.70;99.90
53599;DHT22;39485;45.702;11.364;2022-10-28T15:37:58;20.40;99.90
53599;DHT22;39485;45.702;11.364;2022-10-28T15:40:29;20.30;99.90
53599;DHT22;39485;45.702;11.364;2022-10-28T15:43:03;20.20;99.90
53599;DHT22;39485;45.702;11.364;2022-10-28T15:45:34;20.10;99.90
53599;DHT22;39485;45.702;11.364;2022-10-28T15:48:01;19.90;99.90
53599;DHT22;39485;45.702;11.364;2022-10-28T15:50:35;19.90;99.90
53599;DHT22;39485;45.702;11.364;2022-10-28T15:55:42;19.70;99.90
53599;DHT22;39485;45.702;11.364;2022-10-28T16:00:55;19.60;99.90
53599;DHT22;39485;45.702;11.364;2022-10-28T16:06:05;19.40;99.90
53599;DHT22;39485;45.702;11.364;2022-10-28T16:08:32;19.30;99.90
53599;DHT22;39485;45.702;11.364;2022-10-28T16:11:03;19.30;99.90
53599;DHT22;39485;45.702;11.364;2022-10-28T16:13:57;19.20;99.90
53599;DHT22;39485;45.702;11.364;2022-10-28T16:17:14;19.10;99.90
53599;DHT22;39485;45.702;11.364;2022-10-28T16:19:45;19.00;99.90
53599;DHT22;39485;45.702;11.364;2022-10-28T16:22:48;19.00;99.90
53599;DHT22;39485;45.702;11.364;2022-10-28T16:25:32;18.90;99.90
53599;DHT22;39485;45.702;11.364;2022-10-28T16:28:26;18.80;99.90
53599;DHT22;39485;45.702;11.364;2022-10-28T16:33:57;18.70;99.90
53599;DHT22;39485;45.702;11.364;2022-10-28T16:36:23;18.60;99.90
53599;DHT22;39485;45.702;11.364;2022-10-28T16:38:50;18.60;99.90
53599;DHT22;39485;45.702;11.364;2022-10-28T16:41:18;18.50;99.90
53599;DHT22;39485;45.702;11.364;2022-10-28T16:43:45;18.40;99.90
53599;DHT22;39485;45.702;11.364;2022-10-28T16:46:11;18.30;99.90
53599;DHT22;39485;45.702;11.364;2022-10-28T16:48:37;18.30;99.90
53599;DHT22;39485;45.702;11.364;2022-10-28T16:51:05;18.20;99.90
53599;DHT22;39485;45.702;11.364;2022-10-28T16:53:34;18.20;99.90
53599;DHT22;39485;45.702;11.364;2022-10-28T16:59:39;18.10;99.90
53599;DHT22;39485;45.702;11.364;2022-10-28T17:37:33;17.50;99.90
53599;DHT22;39485;45.702;11.364;2022-10-28T17:39:59;17.50;99.90
53599;DHT22;39485;45.702;11.364;2022-10-28T17:42:25;17.40;99.90
53599;DHT22;39485;45.702;11.364;2022-10-28T17:44:51;17.40;99.90
53599;DHT22;39485;45.702;11.364;2022-10-28T17:47:17;17.30;99.90
53599;DHT22;39485;45.702;11.364;2022-10-28T17:49:43;17.30;99.90
53599;DHT22;39485;45.702;11.364;2022-10-28T17:52:08;17.30;99.90
53599;DHT22;39485;45.702;11.364;2022-10-28T17:54:34;17.20;99.90
53599;DHT22;39485;45.702;11.364;2022-10-28T17:57:00;17.20;99.90
53599;DHT22;39485;45.702;11.364;2022-10-28T17:59:25;17.10;99.90
53599;DHT22;39485;45.702;11.364;2022-10-28T18:01:51;17.10;99.90
53599;DHT22;39485;45.702;11.364;2022-10-28T18:04:17;17.10;99.90
53599;DHT22;39485;45.702;11.364;2022-10-28T18:06:44;17.10;99.90
53599;DHT22;39485;45.702;11.364;2022-10-28T18:09:11;17.10;99.90
53599;DHT22;39485;45.702;11.364;2022-10-28T18:11:38;17.00;99.90
53599;DHT22;39485;45.702;11.364;2022-10-28T18:14:04;17.00;99.90
53599;DHT22;39485;45.702;11.364;2022-10-28T18:16:30;17.00;99.90
53599;DHT22;39485;45.702;11.364;2022-10-28T18:19:00;16.90;99.90
53599;DHT22;39485;45.702;11.364;2022-10-28T18:21:26;16.90;99.90
53599;DHT22;39485;45.702;11.364;2022-10-28T18:23:53;16.90;99.90
53599;DHT22;39485;45.702;11.364;2022-10-28T18:26:32;16.90;99.90
53599;DHT22;39485;45.702;11.364;2022-10-28T18:28:58;16.80;99.90
53599;DHT22;39485;45.702;11.364;2022-10-28T18:31:23;16.70;99.90
53599;DHT22;39485;45.702;11.364;2022-10-28T18:33:49;16.80;99.90
53599;DHT22;39485;45.702;11.364;2022-10-28T18:36:21;16.70;99.90
53599;DHT22;39485;45.702;11.364;2022-10-28T18:38:47;16.70;99.90
53599;DHT22;39485;45.702;11.364;2022-10-28T18:41:21;16.70;99.90
53599;DHT22;39485;45.702;11.364;2022-10-28T18:43:47;16.70;99.90
53599;DHT22;39485;45.702;11.364;2022-10-28T18:46:16;16.60;99.90
53599;DHT22;39485;45.702;11.364;2022-10-28T18:48:42;16.60;99.90
53599;DHT22;39485;45.702;11.364;2022-10-28T18:51:10;16.60;99.90
53599;DHT22;39485;45.702;11.364;2022-10-28T18:53:44;16.50;99.90
53599;DHT22;39485;45.702;11.364;2022-10-28T18:56:15;16.50;99.90
53599;DHT22;39485;45.702;11.364;2022-10-28T18:58:41;16.50;99.90
53599;DHT22;39485;45.702;11.364;2022-10-28T19:15:17;16.30;99.90
53599;DHT22;39485;45.702;11.364;2022-10-28T22:22:49;15.40;99.90
53599;DHT22;39485;45.702;11.364;2022-10-28T22:25:15;15.40;99.90
53599;DHT22;39485;45.702;11.364;2022-10-28T22:27:42;15.40;99.90
53599;DHT22;39485;45.702;11.364;2022-10-28T22:30:14;15.30;99.90
53599;DHT22;39485;45.702;11.364;2022-10-28T22:32:40;15.30;99.90
53599;DHT22;39485;45.702;11.364;2022-10-28T22:35:07;15.30;99.90
53599;DHT22;39485;45.702;11.364;2022-10-28T22:37:33;15.30;99.90
53599;DHT22;39485;45.702;11.364;2022-10-28T22:39:59;15.20;99.90
53599;DHT22;39485;45.702;11.364;2022-10-28T22:42:25;15.20;99.90
53599;DHT22;39485;45.702;11.364;2022-10-28T22:44:51;15.20;99.90
53599;DHT22;39485;45.702;11.364;2022-10-28T22:47:17;15.20;99.90
53599;DHT22;39485;45.702;11.364;2022-10-28T22:49:43;15.20;99.90
53599;DHT22;39485;45.702;11.364;2022-10-28T22:52:09;15.20;99.90
53599;DHT22;39485;45.702;11.364;2022-10-28T22:54:35;15.20;99.90
53599;DHT22;39485;45.702;11.364;2022-10-28T22:57:03;15.20;99.90
53599;DHT22;39485;45.702;11.364;2022-10-28T22:59:31;15.10;99.90
53599;DHT22;39485;45.702;11.364;2022-10-28T23:02:00;15.10;99.90
53599;DHT22;39485;45.702;11.364;2022-10-28T23:04:26;15.20;99.90
53599;DHT22;39485;45.702;11.364;2022-10-28T23:06:53;15.10;99.90
53599;DHT22;39485;45.702;11.364;2022-10-28T23:09:18;15.10;99.90
53599;DHT22;39485;45.702;11.364;2022-10-28T23:11:45;15.10;99.90
53599;DHT22;39485;45.702;11.364;2022-10-28T23:14:11;15.10;99.90
53599;DHT22;39485;45.702;11.364;2022-10-28T23:16:37;15.10;99.90
53599;DHT22;39485;45.702;11.364;2022-10-28T23:19:03;15.10;99.90
53599;DHT22;39485;45.702;11.364;2022-10-28T23:21:29;15.00;99.90
53599;DHT22;39485;45.702;11.364;2022-10-28T23:24:00;15.00;99.90
53599;DHT22;39485;45.702;11.364;2022-10-28T23:26:27;15.00;99.90
53599;DHT22;39485;45.702;11.364;2022-10-28T23:28:56;15.00;99.90
53599;DHT22;39485;45.702;11.364;2022-10-28T23:31:26;15.00;99.90
53599;DHT22;39485;45.702;11.364;2022-10-28T23:34:01;15.00;99.90
53599;DHT22;39485;45.702;11.364;2022-10-28T23:36:28;15.00;99.90
53599;DHT22;39485;45.702;11.364;2022-10-28T23:38:55;15.00;99.90
53599;DHT22;39485;45.702;11.364;2022-10-28T23:41:21;14.90;99.90
53599;DHT22;39485;45.702;11.364;2022-10-28T23:43:47;14.90;99.90
53599;DHT22;39485;45.702;11.364;2022-10-28T23:46:16;14.90;99.90
53599;DHT22;39485;45.702;11.364;2022-10-28T23:48:43;14.90;99.90